Terminal Aerodrome Forecast
Issued by NWS Charleston, WV

Current Version | Previous Version | Graphics & Text | Print | Product List | Glossary On
Versions: 1 2 3 4 5 6 7 8 9 10 11 12 13 14 15 16 17 18 19 20 21 22 23 24 25 26 27 28 29 30 31 32 33 34 35 36
000
FTUS41 KRLX 191300 AAA
TAFHTS
TAF AMD
KHTS 191321Z 1913/2012 15006KT 2SM SHRA BR BKN004 OVC015
      TEMPO 1913/1914 1/2SM SHRA
     FM191400 16006KT 3SM SHRA SCT004 OVC020
     FM191500 16007KT P6SM BKN025
     FM192300 15005KT P6SM BKN035
     FM200500 00000KT P6SM BKN030
     FM200900 00000KT 4SM BR BKN030=

USA.gov is the U.S. government's official web portal to all federal, state and local government web resources and services.